Time;durP1;ratioP1;P1;durP2;ratioP2;P2;SDS_P1;SDS_P2;PMS_P1;PMS_P2;Temp;Humidity;BMP_temperature;BMP_pressure;BME280_temperature;BME280_humidity;BME280_pressure;Samples;Min_cycle;Max_cycle;Signal;HPM_P1;HPM_P2
2024/04/08 00:01:51;;;;;;;;;;;14.00;99.90;;;;;;5108330;28;19957;-46
2024/04/08 00:04:16;;;;;;;;;;;14.00;99.90;;;;;;5104338;28;19995;-48
2024/04/08 00:06:42;;;;;;;;;;;14.00;99.90;;;;;;5109817;28;19907;-47
2024/04/08 00:09:07;;;;;;;;;;;14.10;99.90;;;;;;5105330;28;19953;-46
2024/04/08 00:11:33;;;;;;;;;;;14.00;99.90;;;;;;5110850;28;19912;-46
2024/04/08 00:13:58;;;;;;;;;;;14.00;99.90;;;;;;5105395;28;20036;-46
2024/04/08 00:16:24;;;;;;;;;;;14.00;99.90;;;;;;5111000;28;20272;-48
2024/04/08 00:18:50;;;;;;;;;;;14.00;99.90;;;;;;5105694;28;20295;-47
2024/04/08 00:21:16;;;;;;;;;;;14.00;99.90;;;;;;5111083;28;20022;-47
2024/04/08 00:23:42;;;;;;;;;;;14.00;99.90;;;;;;5104254;28;19962;-47
2024/04/08 00:26:08;;;;;;;;;;;13.90;99.90;;;;;;5112161;28;20260;-46
2024/04/08 00:28:34;;;;;;;;;;;14.00;99.90;;;;;;5108247;28;19915;-47
2024/04/08 00:31:02;;;;;;;;;;;13.90;99.90;;;;;;5111614;28;19908;-46
2024/04/08 00:33:28;;;;;;;;;;;13.90;99.90;;;;;;5109607;28;20528;-46
2024/04/08 00:35:54;;;;;;;;;;;14.00;99.90;;;;;;5111990;28;20138;-51
2024/04/08 00:38:20;;;;;;;;;;;14.00;99.90;;;;;;5110594;28;19907;-50
2024/04/08 00:40:45;;;;;;;;;;;13.90;99.90;;;;;;5111945;28;19912;-51
2024/04/08 00:43:11;;;;;;;;;;;14.00;99.90;;;;;;5110582;28;19908;-52
2024/04/08 00:45:36;;;;;;;;;;;13.90;99.90;;;;;;5112892;28;19908;-50
2024/04/08 00:48:03;;;;;;;;;;;13.90;99.90;;;;;;5111456;28;19908;-53
2024/04/08 00:50:29;;;;;;;;;;;13.90;99.90;;;;;;5112655;28;19912;-51
2024/04/08 00:52:55;;;;;;;;;;;13.90;99.90;;;;;;5112468;28;20417;-49
2024/04/08 00:55:21;;;;;;;;;;;13.90;99.90;;;;;;5114294;28;19912;-53
2024/04/08 00:57:48;;;;;;;;;;;13.90;99.90;;;;;;5113763;28;19919;-50
2024/04/08 01:00:14;;;;;;;;;;;13.90;99.90;;;;;;5105561;28;19915;-52
2024/04/08 01:02:40;;;;;;;;;;;13.90;99.90;;;;;;5108578;28;20368;-52
2024/04/08 01:05:06;;;;;;;;;;;13.90;99.90;;;;;;5096229;28;19916;-52
2024/04/08 01:07:32;;;;;;;;;;;13.90;99.90;;;;;;5099771;28;19908;-50
2024/04/08 01:09:58;;;;;;;;;;;13.90;99.90;;;;;;5100628;28;19912;-49
2024/04/08 01:12:24;;;;;;;;;;;13.90;99.90;;;;;;5100607;28;19961;-52
2024/04/08 01:14:49;;;;;;;;;;;13.90;99.90;;;;;;5101294;28;20406;-50
2024/04/08 01:17:16;;;;;;;;;;;13.90;99.90;;;;;;5097814;28;19912;-52
2024/04/08 01:19:42;;;;;;;;;;;13.90;99.90;;;;;;5100899;28;19912;-52
2024/04/08 01:22:08;;;;;;;;;;;13.90;99.90;;;;;;5099064;28;20387;-51
2024/04/08 01:25:57;;;;;;;;;;;13.90;99.90;;;;;;5452677;26;19967;-50
2024/04/08 01:28:23;;;;;;;;;;;13.90;99.90;;;;;;5444063;26;19929;-49
2024/04/08 01:30:51;;;;;;;;;;;13.90;99.90;;;;;;5443504;26;20031;-50
2024/04/08 01:33:16;;;;;;;;;;;13.90;99.90;;;;;;5443588;26;19953;-49
2024/04/08 01:35:42;;;;;;;;;;;13.90;99.90;;;;;;5445771;26;19936;-50
2024/04/08 01:38:08;;;;;;;;;;;13.80;99.90;;;;;;5443784;26;20376;-51
2024/04/08 01:40:33;;;;;;;;;;;13.90;99.90;;;;;;5446874;26;19929;-50
2024/04/08 01:42:59;;;;;;;;;;;13.90;99.90;;;;;;5444228;26;19979;-47
2024/04/08 01:45:24;;;;;;;;;;;13.90;99.90;;;;;;5448340;26;19937;-46
2024/04/08 01:47:50;;;;;;;;;;;13.90;99.90;;;;;;5443981;26;19929;-47
2024/04/08 01:50:15;;;;;;;;;;;13.90;99.90;;;;;;5449559;26;20435;-46
2024/04/08 01:52:41;;;;;;;;;;;13.90;99.90;;;;;;5445751;26;19929;-45
2024/04/08 01:55:07;;;;;;;;;;;13.90;99.90;;;;;;5450610;26;19928;-45
2024/04/08 01:57:32;;;;;;;;;;;13.90;99.90;;;;;;5446407;26;19943;-49
2024/04/08 01:59:58;;;;;;;;;;;13.90;99.90;;;;;;5452532;26;20372;-48
2024/04/08 02:02:24;;;;;;;;;;;13.80;99.90;;;;;;5447559;26;19929;-46
2024/04/08 02:04:50;;;;;;;;;;;13.80;99.90;;;;;;5457263;26;19996;-49
2024/04/08 02:07:16;;;;;;;;;;;13.80;99.90;;;;;;5454949;26;19935;-46
2024/04/08 02:09:41;;;;;;;;;;;13.80;99.90;;;;;;5459366;26;19929;-49
2024/04/08 02:12:07;;;;;;;;;;;13.80;99.90;;;;;;5454483;26;19935;-47
2024/04/08 02:14:32;;;;;;;;;;;13.80;99.90;;;;;;5460269;26;19935;-48
2024/04/08 02:16:58;;;;;;;;;;;13.80;99.90;;;;;;5434622;26;19937;-46
2024/04/08 02:19:24;;;;;;;;;;;13.80;99.90;;;;;;5459792;26;19972;-48
2024/04/08 02:21:50;;;;;;;;;;;13.80;99.90;;;;;;5453726;26;19929;-45
2024/04/08 02:24:16;;;;;;;;;;;13.80;99.90;;;;;;5460473;26;19928;-47
2024/04/08 02:26:42;;;;;;;;;;;13.80;99.90;;;;;;5456138;26;19935;-46
2024/04/08 02:29:07;;;;;;;;;;;13.80;99.90;;;;;;5464681;26;19928;-47
2024/04/08 02:31:33;;;;;;;;;;;13.80;99.90;;;;;;5456460;26;19929;-46
2024/04/08 02:33:58;;;;;;;;;;;13.80;99.90;;;;;;5451672;26;20390;-49
2024/04/08 02:36:24;;;;;;;;;;;13.80;99.90;;;;;;5442701;26;20299;-45
2024/04/08 02:38:49;;;;;;;;;;;13.80;99.90;;;;;;5450411;26;20333;-48
2024/04/08 02:41:15;;;;;;;;;;;13.80;99.90;;;;;;5444090;26;20334;-45
2024/04/08 02:43:41;;;;;;;;;;;13.80;99.90;;;;;;5451069;26;19997;-46
2024/04/08 02:46:06;;;;;;;;;;;13.80;99.90;;;;;;5445314;26;19936;-46
2024/04/08 02:48:32;;;;;;;;;;;13.80;99.90;;;;;;5451799;26;19928;-46
2024/04/08 02:50:57;;;;;;;;;;;13.80;99.90;;;;;;5441270;26;19933;-50
2024/04/08 02:53:24;;;;;;;;;;;13.80;99.90;;;;;;5391307;26;19976;-46
2024/04/08 02:55:56;;;;;;;;;;;13.80;99.90;;;;;;5440913;26;19933;-46
2024/04/08 02:58:22;;;;;;;;;;;13.80;99.90;;;;;;5452881;26;19928;-45
2024/04/08 03:00:48;;;;;;;;;;;13.80;99.90;;;;;;5448682;26;19928;-45
2024/04/08 03:03:13;;;;;;;;;;;13.80;99.90;;;;;;5453803;26;19944;-45
2024/04/08 03:05:39;;;;;;;;;;;13.80;99.90;;;;;;5425607;26;19932;-45
2024/04/08 03:08:07;;;;;;;;;;;13.80;99.90;;;;;;5420946;26;19928;-45
2024/04/08 03:10:33;;;;;;;;;;;13.80;99.90;;;;;;5422072;26;20349;-47
2024/04/08 03:12:58;;;;;;;;;;;13.80;99.90;;;;;;5421972;26;19978;-45
2024/04/08 03:15:24;;;;;;;;;;;13.80;99.90;;;;;;5422159;26;20026;-44
2024/04/08 03:17:49;;;;;;;;;;;13.80;99.90;;;;;;5422415;26;19928;-46
2024/04/08 03:20:15;;;;;;;;;;;13.80;99.90;;;;;;5424365;26;20260;-45
2024/04/08 03:22:40;;;;;;;;;;;13.80;99.90;;;;;;5423817;26;19935;-45
2024/04/08 03:25:06;;;;;;;;;;;13.80;99.90;;;;;;5423334;26;19936;-45
2024/04/08 03:27:31;;;;;;;;;;;13.80;99.90;;;;;;5423321;26;19937;-44
2024/04/08 03:29:57;;;;;;;;;;;13.80;99.90;;;;;;5425058;26;20261;-45
2024/04/08 03:32:22;;;;;;;;;;;13.80;99.90;;;;;;5422057;26;20364;-48
2024/04/08 03:34:48;;;;;;;;;;;13.80;99.90;;;;;;5427101;26;19929;-45
2024/04/08 03:37:14;;;;;;;;;;;13.80;99.90;;;;;;5423789;26;19952;-45
2024/04/08 03:39:39;;;;;;;;;;;13.80;99.90;;;;;;5424542;26;19936;-46
2024/04/08 03:42:05;;;;;;;;;;;13.80;99.90;;;;;;5420278;26;19944;-45
2024/04/08 03:44:30;;;;;;;;;;;13.80;99.90;;;;;;5420442;26;19929;-45
2024/04/08 03:46:56;;;;;;;;;;;13.80;99.90;;;;;;5436864;26;20265;-46
2024/04/08 03:49:22;;;;;;;;;;;13.80;99.90;;;;;;5420904;26;19935;-45
2024/04/08 03:51:47;;;;;;;;;;;13.80;99.90;;;;;;5419942;26;19928;-45
2024/04/08 03:54:13;;;;;;;;;;;13.80;99.90;;;;;;5432294;26;19944;-45
2024/04/08 03:56:38;;;;;;;;;;;13.80;99.90;;;;;;5420068;26;19936;-45
2024/04/08 03:59:04;;;;;;;;;;;13.80;99.90;;;;;;5420205;26;19929;-47
2024/04/08 04:01:29;;;;;;;;;;;13.90;99.90;;;;;;5419881;26;20257;-44
2024/04/08 04:03:55;;;;;;;;;;;13.80;99.90;;;;;;5423464;26;20659;-45
2024/04/08 04:06:20;;;;;;;;;;;13.80;99.90;;;;;;5438937;26;19929;-45
2024/04/08 04:08:48;;;;;;;;;;;13.90;99.90;;;;;;5419981;26;19937;-45
2024/04/08 04:11:13;;;;;;;;;;;13.80;99.90;;;;;;5447046;26;19928;-49
2024/04/08 04:13:39;;;;;;;;;;;13.80;99.90;;;;;;5443286;26;19936;-46
2024/04/08 04:16:05;;;;;;;;;;;13.80;99.90;;;;;;5448634;26;20357;-48
2024/04/08 04:18:31;;;;;;;;;;;13.90;99.90;;;;;;5443111;26;19929;-47
2024/04/08 04:20:57;;;;;;;;;;;13.80;99.90;;;;;;5448918;26;20267;-49
2024/04/08 04:23:23;;;;;;;;;;;13.90;99.90;;;;;;5444255;26;19936;-46
2024/04/08 04:25:52;;;;;;;;;;;13.90;99.90;;;;;;5449544;26;19929;-50
2024/04/08 04:28:18;;;;;;;;;;;13.90;99.90;;;;;;5428611;26;19997;-46
2024/04/08 04:30:51;;;;;;;;;;;13.90;99.90;;;;;;5450414;26;19936;-47
2024/04/08 04:33:17;;;;;;;;;;;13.90;99.90;;;;;;5445503;26;20271;-48
2024/04/08 04:35:50;;;;;;;;;;;13.90;99.90;;;;;;5451045;26;19941;-46
2024/04/08 04:38:16;;;;;;;;;;;13.90;99.90;;;;;;5435090;26;19929;-48
2024/04/08 04:40:41;;;;;;;;;;;13.90;99.90;;;;;;5406412;26;20027;-51
2024/04/08 04:43:07;;;;;;;;;;;13.90;99.90;;;;;;5430888;26;19928;-47
2024/04/08 04:45:32;;;;;;;;;;;13.90;99.90;;;;;;5417085;26;19929;-50
2024/04/08 04:47:58;;;;;;;;;;;13.90;99.90;;;;;;5424492;26;19998;-49
2024/04/08 04:50:23;;;;;;;;;;;13.90;99.90;;;;;;5435952;26;19937;-48
2024/04/08 04:52:49;;;;;;;;;;;13.90;99.90;;;;;;5443265;26;19997;-46
2024/04/08 04:55:14;;;;;;;;;;;13.90;99.90;;;;;;5430769;26;19960;-47
2024/04/08 04:57:40;;;;;;;;;;;13.90;99.90;;;;;;5447601;26;19986;-50
2024/04/08 05:00:05;;;;;;;;;;;13.90;99.90;;;;;;5452079;26;19929;-48
2024/04/08 05:02:31;;;;;;;;;;;13.90;99.90;;;;;;5441729;26;19933;-48
2024/04/08 05:04:57;;;;;;;;;;;13.90;99.90;;;;;;5420424;26;19936;-49
2024/04/08 05:07:22;;;;;;;;;;;13.90;99.90;;;;;;5423936;26;19940;-49
2024/04/08 05:09:48;;;;;;;;;;;13.90;99.90;;;;;;5422014;26;19937;-47
2024/04/08 05:12:13;;;;;;;;;;;13.90;99.90;;;;;;5424768;26;20001;-49
2024/04/08 05:14:39;;;;;;;;;;;14.00;99.90;;;;;;5423202;26;19929;-47
2024/04/08 05:17:04;;;;;;;;;;;13.90;99.90;;;;;;5424854;26;19929;-46
2024/04/08 05:19:30;;;;;;;;;;;14.00;99.90;;;;;;5421771;26;19935;-48
2024/04/08 05:21:57;;;;;;;;;;;14.00;99.90;;;;;;5422063;26;19929;-50
2024/04/08 05:24:22;;;;;;;;;;;14.00;99.90;;;;;;5426171;26;19941;-47
2024/04/08 05:26:48;;;;;;;;;;;14.00;99.90;;;;;;5426336;26;19969;-46
2024/04/08 05:29:13;;;;;;;;;;;14.00;99.90;;;;;;5407844;26;20200;-45
2024/04/08 05:31:39;;;;;;;;;;;14.00;99.90;;;;;;5408504;26;19964;-49
2024/04/08 05:34:04;;;;;;;;;;;14.00;99.90;;;;;;5413007;26;19933;-48
2024/04/08 05:36:30;;;;;;;;;;;14.10;99.90;;;;;;5417656;26;19929;-48
2024/04/08 05:38:56;;;;;;;;;;;14.10;99.90;;;;;;5410721;26;19935;-47
2024/04/08 05:41:21;;;;;;;;;;;14.10;99.90;;;;;;5413896;26;19936;-47
2024/04/08 05:43:47;;;;;;;;;;;14.10;99.90;;;;;;5435701;26;19997;-45
2024/04/08 05:46:12;;;;;;;;;;;14.10;99.90;;;;;;5445801;26;19929;-50
2024/04/08 05:48:38;;;;;;;;;;;14.10;99.90;;;;;;5441073;26;19960;-45
2024/04/08 05:51:04;;;;;;;;;;;14.20;99.90;;;;;;5399091;26;19936;-48
2024/04/08 05:53:29;;;;;;;;;;;14.20;99.90;;;;;;5412489;26;19940;-46
2024/04/08 05:55:55;;;;;;;;;;;14.20;99.90;;;;;;5418085;26;19938;-50
2024/04/08 05:58:20;;;;;;;;;;;14.20;99.90;;;;;;5413738;26;20366;-46
2024/04/08 06:00:46;;;;;;;;;;;14.20;99.90;;;;;;5425907;26;19932;-45
2024/04/08 06:03:11;;;;;;;;;;;14.20;99.90;;;;;;5435352;26;20564;-45
2024/04/08 06:05:40;;;;;;;;;;;14.20;99.90;;;;;;5416270;26;19937;-45
2024/04/08 06:08:06;;;;;;;;;;;14.20;99.90;;;;;;5422136;26;19938;-45
2024/04/08 06:10:34;;;;;;;;;;;14.20;99.90;;;;;;5413158;26;19940;-45
2024/04/08 06:12:59;;;;;;;;;;;14.20;99.90;;;;;;5408963;26;19937;-46
2024/04/08 06:15:25;;;;;;;;;;;14.20;99.90;;;;;;5425067;26;20007;-47
2024/04/08 06:17:51;;;;;;;;;;;14.30;99.90;;;;;;5422603;26;19929;-47
2024/04/08 06:20:17;;;;;;;;;;;14.30;99.90;;;;;;5421470;26;19930;-47
2024/04/08 06:22:43;;;;;;;;;;;14.30;99.90;;;;;;5436782;26;19935;-45
2024/04/08 06:25:09;;;;;;;;;;;14.30;99.90;;;;;;5413865;26;19965;-48
2024/04/08 06:27:34;;;;;;;;;;;14.30;99.90;;;;;;5400784;26;19937;-45
2024/04/08 06:30:00;;;;;;;;;;;14.40;99.90;;;;;;5404826;26;20684;-46
2024/04/08 06:32:26;;;;;;;;;;;14.40;99.90;;;;;;5403980;26;20018;-45
2024/04/08 06:34:51;;;;;;;;;;;14.40;99.90;;;;;;5407400;26;19936;-48
2024/04/08 06:37:17;;;;;;;;;;;14.40;99.90;;;;;;5399672;26;19937;-48
2024/04/08 06:39:43;;;;;;;;;;;14.40;99.90;;;;;;5407446;26;19997;-50
2024/04/08 06:42:18;;;;;;;;;;;14.50;99.90;;;;;;5402767;26;19941;-49
2024/04/08 06:44:47;;;;;;;;;;;14.50;99.90;;;;;;5404493;26;19933;-46
2024/04/08 06:47:13;;;;;;;;;;;14.50;99.90;;;;;;5417841;26;19933;-50
2024/04/08 06:49:39;;;;;;;;;;;14.40;99.90;;;;;;5404438;26;19941;-47
2024/04/08 06:52:04;;;;;;;;;;;14.50;99.90;;;;;;5408534;26;19935;-50
2024/04/08 06:54:30;;;;;;;;;;;14.50;99.90;;;;;;5418034;26;19931;-51
2024/04/08 06:56:55;;;;;;;;;;;14.50;99.90;;;;;;5419059;26;19928;-50
2024/04/08 06:59:21;;;;;;;;;;;14.50;99.90;;;;;;5406520;26;19930;-49
2024/04/08 07:01:46;;;;;;;;;;;14.50;99.90;;;;;;5405152;26;20276;-48
2024/04/08 07:04:12;;;;;;;;;;;14.60;99.90;;;;;;5407013;26;19980;-51
2024/04/08 07:06:37;;;;;;;;;;;14.60;99.90;;;;;;5401120;26;19928;-50
2024/04/08 07:09:03;;;;;;;;;;;14.60;99.90;;;;;;5398599;26;19929;-49
2024/04/08 07:11:29;;;;;;;;;;;14.60;99.90;;;;;;5403616;26;20024;-52
2024/04/08 07:13:54;;;;;;;;;;;14.60;99.90;;;;;;5405034;26;19944;-49
2024/04/08 07:16:20;;;;;;;;;;;14.60;99.90;;;;;;5391159;26;20005;-50
2024/04/08 07:18:45;;;;;;;;;;;14.60;99.90;;;;;;5387029;26;19988;-49
2024/04/08 07:21:11;;;;;;;;;;;14.60;99.90;;;;;;5397182;26;19933;-48
2024/04/08 07:23:36;;;;;;;;;;;14.70;99.90;;;;;;5403379;26;19930;-51
2024/04/08 07:26:02;;;;;;;;;;;14.70;99.90;;;;;;5405156;26;20383;-52
2024/04/08 07:28:27;;;;;;;;;;;14.70;99.90;;;;;;5408263;26;19929;-50
2024/04/08 07:30:53;;;;;;;;;;;14.70;99.90;;;;;;5419836;26;19929;-51
2024/04/08 07:33:19;;;;;;;;;;;14.70;99.90;;;;;;5419894;26;19929;-47
2024/04/08 07:35:44;;;;;;;;;;;14.70;99.90;;;;;;5416631;26;20368;-47
2024/04/08 07:38:10;;;;;;;;;;;14.80;99.90;;;;;;5409282;26;19929;-50
2024/04/08 07:40:35;;;;;;;;;;;14.70;99.90;;;;;;5403359;26;19941;-47
2024/04/08 07:43:02;;;;;;;;;;;14.80;99.90;;;;;;5407971;26;19933;-45
2024/04/08 07:45:27;;;;;;;;;;;14.70;99.90;;;;;;5401675;26;19998;-47
2024/04/08 07:47:53;;;;;;;;;;;14.80;99.90;;;;;;5404664;26;19936;-46
2024/04/08 07:50:19;;;;;;;;;;;14.80;99.90;;;;;;5403008;26;20010;-45
2024/04/08 07:52:44;;;;;;;;;;;14.80;99.90;;;;;;5406427;26;19929;-46
2024/04/08 07:55:10;;;;;;;;;;;14.80;99.90;;;;;;5403657;26;19929;-46
2024/04/08 07:57:36;;;;;;;;;;;14.80;99.90;;;;;;5404556;26;19949;-46
2024/04/08 08:00:01;;;;;;;;;;;14.80;99.90;;;;;;5403423;26;19929;-48
2024/04/08 08:02:29;;;;;;;;;;;14.80;99.90;;;;;;5398033;26;19929;-46
2024/04/08 08:04:55;;;;;;;;;;;14.80;99.90;;;;;;5400211;26;19930;-46
2024/04/08 08:07:20;;;;;;;;;;;14.80;99.90;;;;;;5407313;26;19936;-46
2024/04/08 08:09:46;;;;;;;;;;;14.80;99.90;;;;;;5391172;26;19937;-50
2024/04/08 08:12:11;;;;;;;;;;;14.80;99.90;;;;;;5405522;26;19966;-46
2024/04/08 08:14:37;;;;;;;;;;;14.80;99.90;;;;;;5398606;26;19991;-46
2024/04/08 08:17:02;;;;;;;;;;;14.90;99.90;;;;;;5405786;26;19979;-46
2024/04/08 08:19:28;;;;;;;;;;;14.80;99.90;;;;;;5404268;26;19928;-48
2024/04/08 08:21:53;;;;;;;;;;;14.90;99.90;;;;;;5418921;26;20002;-46
2024/04/08 08:24:19;;;;;;;;;;;14.90;99.90;;;;;;5418003;26;19957;-46
2024/04/08 08:26:45;;;;;;;;;;;14.90;99.90;;;;;;5417951;26;19929;-47
2024/04/08 08:29:10;;;;;;;;;;;14.90;99.90;;;;;;5399949;26;19929;-49
2024/04/08 08:31:36;;;;;;;;;;;14.90;99.90;;;;;;5409876;26;19940;-53
2024/04/08 08:34:01;;;;;;;;;;;14.90;99.90;;;;;;5400420;26;20283;-53
2024/04/08 08:36:27;;;;;;;;;;;14.90;99.90;;;;;;5401362;26;19929;-51
2024/04/08 08:38:52;;;;;;;;;;;14.90;99.90;;;;;;5405134;26;19937;-48
2024/04/08 08:41:21;;;;;;;;;;;15.00;99.90;;;;;;5405528;26;19944;-46
2024/04/08 08:43:46;;;;;;;;;;;15.00;99.90;;;;;;5402675;26;20335;-47
2024/04/08 08:46:12;;;;;;;;;;;15.00;99.90;;;;;;5390270;26;19929;-45
2024/04/08 08:48:39;;;;;;;;;;;15.00;99.90;;;;;;5414917;26;20126;-48
2024/04/08 08:51:08;;;;;;;;;;;15.00;99.90;;;;;;5417714;26;19975;-45
2024/04/08 08:53:33;;;;;;;;;;;15.00;99.90;;;;;;5405195;26;19929;-47
2024/04/08 08:56:00;;;;;;;;;;;15.00;99.90;;;;;;5411936;26;20355;-46
2024/04/08 08:58:25;;;;;;;;;;;15.00;99.90;;;;;;5418936;26;19928;-48
2024/04/08 09:00:51;;;;;;;;;;;15.00;99.90;;;;;;5415766;26;19998;-51
2024/04/08 09:03:17;;;;;;;;;;;15.00;99.90;;;;;;5418382;26;20265;-52
2024/04/08 09:05:43;;;;;;;;;;;15.10;99.90;;;;;;5416393;26;20747;-48
2024/04/08 09:08:08;;;;;;;;;;;15.10;99.90;;;;;;5415634;26;20249;-52
2024/04/08 09:10:44;;;;;;;;;;;15.10;99.90;;;;;;5417256;26;19956;-50
2024/04/08 09:13:19;;;;;;;;;;;15.10;99.90;;;;;;5417162;26;20284;-51
2024/04/08 09:15:45;;;;;;;;;;;15.10;99.90;;;;;;5394836;26;19929;-50
2024/04/08 09:18:10;;;;;;;;;;;15.10;99.90;;;;;;5404585;26;19936;-50
2024/04/08 09:20:36;;;;;;;;;;;15.10;99.90;;;;;;5411238;26;19935;-50
2024/04/08 09:23:01;;;;;;;;;;;15.10;99.90;;;;;;5416939;26;19929;-49
2024/04/08 09:25:27;;;;;;;;;;;15.10;99.90;;;;;;5411193;26;19929;-50
2024/04/08 09:27:53;;;;;;;;;;;15.10;99.90;;;;;;5405174;26;20339;-51
2024/04/08 09:30:18;;;;;;;;;;;15.10;99.90;;;;;;5416480;26;19943;-51
2024/04/08 09:32:44;;;;;;;;;;;15.10;99.90;;;;;;5415551;26;19937;-48
2024/04/08 09:35:11;;;;;;;;;;;15.10;99.90;;;;;;5417292;26;19929;-50
2024/04/08 09:37:36;;;;;;;;;;;15.20;99.90;;;;;;5413235;26;19929;-49
2024/04/08 09:40:02;;;;;;;;;;;15.20;99.90;;;;;;5416080;26;20006;-51
2024/04/08 09:42:32;;;;;;;;;;;15.20;99.90;;;;;;5414764;26;19940;-46
2024/04/08 09:44:59;;;;;;;;;;;15.20;99.90;;;;;;5416414;26;20642;-45
2024/04/08 09:47:26;;;;;;;;;;;15.20;99.90;;;;;;5419964;26;20024;-47
2024/04/08 09:49:53;;;;;;;;;;;15.20;99.90;;;;;;5419397;26;19937;-46
2024/04/08 09:52:19;;;;;;;;;;;15.20;99.90;;;;;;5419613;26;19940;-45
2024/04/08 09:54:45;;;;;;;;;;;15.20;99.90;;;;;;5417981;26;19936;-48
2024/04/08 09:57:13;;;;;;;;;;;15.20;99.90;;;;;;5419113;26;19953;-45
2024/04/08 09:59:41;;;;;;;;;;;15.20;99.90;;;;;;5420073;26;19929;-47
2024/04/08 10:02:17;;;;;;;;;;;15.20;99.90;;;;;;5417420;26;19969;-46
2024/04/08 10:04:43;;;;;;;;;;;15.20;99.90;;;;;;5419065;26;20288;-48
2024/04/08 10:07:09;;;;;;;;;;;15.30;99.90;;;;;;5418879;26;19975;-45
2024/04/08 10:09:35;;;;;;;;;;;15.20;99.90;;;;;;5419106;26;20308;-49
2024/04/08 10:12:02;;;;;;;;;;;15.20;99.90;;;;;;5419651;26;19953;-46
2024/04/08 10:14:28;;;;;;;;;;;15.20;99.90;;;;;;5420572;26;20319;-47
2024/04/08 10:16:55;;;;;;;;;;;15.30;99.90;;;;;;5419420;26;19936;-46
2024/04/08 10:19:21;;;;;;;;;;;15.30;99.90;;;;;;5419216;26;19939;-45
2024/04/08 10:21:47;;;;;;;;;;;15.30;99.90;;;;;;5418981;26;19928;-45
2024/04/08 10:24:28;;;;;;;;;;;15.30;99.90;;;;;;5389015;26;20269;-46
2024/04/08 10:27:03;;;;;;;;;;;15.30;99.90;;;;;;5400878;26;19937;-46
2024/04/08 10:29:29;;;;;;;;;;;15.30;99.90;;;;;;5410165;26;19936;-48
2024/04/08 10:31:55;;;;;;;;;;;15.30;99.90;;;;;;5405601;26;19935;-48
2024/04/08 10:34:20;;;;;;;;;;;15.30;99.90;;;;;;5403127;26;20365;-46
2024/04/08 10:36:46;;;;;;;;;;;15.30;99.90;;;;;;5403630;26;19960;-48
2024/04/08 10:39:11;;;;;;;;;;;15.30;99.90;;;;;;5401386;26;19941;-46
2024/04/08 10:41:37;;;;;;;;;;;15.30;99.90;;;;;;5403056;26;19969;-46
2024/04/08 10:44:02;;;;;;;;;;;15.30;99.90;;;;;;5419204;26;19941;-47
2024/04/08 10:46:28;;;;;;;;;;;15.30;99.90;;;;;;5419419;26;19966;-46
2024/04/08 10:48:54;;;;;;;;;;;15.30;99.90;;;;;;5418980;26;19941;-45
2024/04/08 10:51:19;;;;;;;;;;;15.30;99.90;;;;;;5418992;26;20788;-47
2024/04/08 10:53:45;;;;;;;;;;;15.30;99.90;;;;;;5415022;26;19929;-49
2024/04/08 10:56:10;;;;;;;;;;;15.40;99.90;;;;;;5406843;26;20418;-46
2024/04/08 10:58:36;;;;;;;;;;;15.40;99.90;;;;;;5419190;26;19959;-47
2024/04/08 11:01:05;;;;;;;;;;;15.40;99.90;;;;;;5418532;26;19940;-47
2024/04/08 11:03:30;;;;;;;;;;;15.40;99.90;;;;;;5419306;26;19935;-45
2024/04/08 11:05:56;;;;;;;;;;;15.40;99.90;;;;;;5418022;26;19937;-45
2024/04/08 11:08:21;;;;;;;;;;;15.40;99.90;;;;;;5419026;26;19933;-45
2024/04/08 11:10:47;;;;;;;;;;;15.40;99.90;;;;;;5418677;26;19937;-47
2024/04/08 11:13:13;;;;;;;;;;;15.40;99.90;;;;;;5417985;26;19998;-45
2024/04/08 11:15:40;;;;;;;;;;;15.40;99.90;;;;;;5418085;26;19936;-47
2024/04/08 11:18:10;;;;;;;;;;;15.40;99.90;;;;;;5418889;26;19941;-46
2024/04/08 11:20:36;;;;;;;;;;;15.40;99.90;;;;;;5417365;26;19936;-45
2024/04/08 11:23:02;;;;;;;;;;;15.40;99.90;;;;;;5404986;26;20475;-44
2024/04/08 11:25:28;;;;;;;;;;;15.50;99.90;;;;;;5403806;26;19979;-46
2024/04/08 11:27:54;;;;;;;;;;;15.40;99.90;;;;;;5396935;26;19999;-45
2024/04/08 11:30:19;;;;;;;;;;;15.40;99.90;;;;;;5405023;26;19936;-45
2024/04/08 11:32:45;;;;;;;;;;;15.50;99.90;;;;;;5401868;26;19929;-45
2024/04/08 11:35:11;;;;;;;;;;;15.50;99.90;;;;;;5403788;26;19929;-45
2024/04/08 11:37:36;;;;;;;;;;;15.50;99.90;;;;;;5404029;26;19941;-45
2024/04/08 11:40:05;;;;;;;;;;;15.50;99.90;;;;;;5398630;26;19936;-45
2024/04/08 11:42:31;;;;;;;;;;;15.50;99.90;;;;;;5400164;26;19935;-45
2024/04/08 11:44:57;;;;;;;;;;;15.50;99.90;;;;;;5417978;26;19929;-45
2024/04/08 11:47:23;;;;;;;;;;;15.50;99.90;;;;;;5410720;26;20254;-45
2024/04/08 11:49:49;;;;;;;;;;;15.50;99.90;;;;;;5417957;26;19936;-46
2024/04/08 11:52:14;;;;;;;;;;;15.50;99.90;;;;;;5419131;26;19929;-45
2024/04/08 11:54:40;;;;;;;;;;;15.50;99.90;;;;;;5412891;26;19935;-45
2024/04/08 11:57:07;;;;;;;;;;;15.60;99.90;;;;;;5408117;26;19979;-47
2024/04/08 11:59:33;;;;;;;;;;;15.60;99.90;;;;;;5415748;26;19933;-45
2024/04/08 12:01:58;;;;;;;;;;;15.60;99.90;;;;;;5419170;26;19929;-46
2024/04/08 12:04:24;;;;;;;;;;;15.60;99.90;;;;;;5419408;26;19929;-46
2024/04/08 12:06:50;;;;;;;;;;;15.60;99.90;;;;;;5412499;26;19929;-47
2024/04/08 12:09:15;;;;;;;;;;;15.60;99.90;;;;;;5405362;26;19933;-46
2024/04/08 12:11:42;;;;;;;;;;;15.60;99.90;;;;;;5405415;26;19941;-46
2024/04/08 12:14:08;;;;;;;;;;;15.60;99.90;;;;;;5407887;26;19955;-46
2024/04/08 12:16:34;;;;;;;;;;;15.60;99.90;;;;;;5408069;26;19929;-46
2024/04/08 12:19:00;;;;;;;;;;;15.60;99.90;;;;;;5407744;26;19936;-46
2024/04/08 12:21:26;;;;;;;;;;;15.60;99.90;;;;;;5403014;26;19936;-45
2024/04/08 12:23:53;;;;;;;;;;;15.60;99.90;;;;;;5414651;26;19929;-46
2024/04/08 12:26:19;;;;;;;;;;;15.60;99.90;;;;;;5403994;26;19929;-45
2024/04/08 12:28:44;;;;;;;;;;;15.60;99.90;;;;;;5415321;26;20403;-45
2024/04/08 12:31:10;;;;;;;;;;;15.60;99.90;;;;;;5416213;26;19929;-45
2024/04/08 12:33:36;;;;;;;;;;;15.60;99.90;;;;;;5418787;26;19933;-49
2024/04/08 12:36:02;;;;;;;;;;;15.60;99.90;;;;;;5418395;26;20169;-50
2024/04/08 12:38:27;;;;;;;;;;;15.60;99.90;;;;;;5419541;26;20184;-50
2024/04/08 12:40:53;;;;;;;;;;;15.60;99.90;;;;;;5418319;26;19940;-46
2024/04/08 12:43:18;;;;;;;;;;;15.60;99.90;;;;;;5414714;26;20262;-46
2024/04/08 12:45:44;;;;;;;;;;;15.60;99.90;;;;;;5407846;26;20369;-49
2024/04/08 12:48:10;;;;;;;;;;;15.60;99.90;;;;;;5418831;26;19987;-50
2024/04/08 12:50:37;;;;;;;;;;;15.60;99.90;;;;;;5409346;26;19937;-47
2024/04/08 12:53:03;;;;;;;;;;;15.60;99.90;;;;;;5418466;26;19957;-50
2024/04/08 12:55:28;;;;;;;;;;;15.60;99.90;;;;;;5413229;26;20477;-48
2024/04/08 12:57:54;;;;;;;;;;;15.60;99.90;;;;;;5419818;26;19937;-50
2024/04/08 13:00:19;;;;;;;;;;;15.60;99.90;;;;;;5417399;26;19929;-46
2024/04/08 13:02:45;;;;;;;;;;;15.60;99.90;;;;;;5418714;26;19937;-46
2024/04/08 13:05:10;;;;;;;;;;;15.60;99.90;;;;;;5414348;26;19945;-46
2024/04/08 13:07:36;;;;;;;;;;;15.60;99.90;;;;;;5417438;26;19929;-49
2024/04/08 13:10:02;;;;;;;;;;;15.60;99.90;;;;;;5415846;26;19973;-48
2024/04/08 13:12:28;;;;;;;;;;;15.60;99.90;;;;;;5415540;26;19929;-48
2024/04/08 13:14:53;;;;;;;;;;;15.60;99.90;;;;;;5418200;26;19928;-46
2024/04/08 13:17:19;;;;;;;;;;;15.60;99.90;;;;;;5418263;26;19936;-49
2024/04/08 13:19:44;;;;;;;;;;;15.60;99.90;;;;;;5417558;26;20479;-48
2024/04/08 13:22:10;;;;;;;;;;;15.60;99.90;;;;;;5415946;26;19929;-49
2024/04/08 13:24:35;;;;;;;;;;;15.60;99.90;;;;;;5411184;26;19929;-48
2024/04/08 13:27:01;;;;;;;;;;;15.60;99.90;;;;;;5417763;26;19935;-50
2024/04/08 13:29:27;;;;;;;;;;;15.60;99.90;;;;;;5416500;26;19929;-47
2024/04/08 13:31:52;;;;;;;;;;;15.50;99.90;;;;;;5405460;26;19930;-50
2024/04/08 13:34:18;;;;;;;;;;;15.50;99.90;;;;;;5418741;26;20362;-48
2024/04/08 13:36:43;;;;;;;;;;;15.50;99.90;;;;;;5415797;26;19950;-48
2024/04/08 13:39:09;;;;;;;;;;;15.50;99.90;;;;;;5416360;26;19964;-50
2024/04/08 13:41:34;;;;;;;;;;;15.50;99.90;;;;;;5418115;26;19936;-50
2024/04/08 13:44:00;;;;;;;;;;;15.50;99.90;;;;;;5415376;26;19940;-48
2024/04/08 13:46:26;;;;;;;;;;;15.50;99.90;;;;;;5395332;26;19980;-45
2024/04/08 13:48:51;;;;;;;;;;;15.50;99.90;;;;;;5417837;26;19933;-45
2024/04/08 13:51:17;;;;;;;;;;;15.50;99.90;;;;;;5416674;26;20268;-46
2024/04/08 13:53:43;;;;;;;;;;;15.50;99.90;;;;;;5418307;26;19940;-46
2024/04/08 13:56:08;;;;;;;;;;;15.50;99.90;;;;;;5416850;26;19935;-46
2024/04/08 13:58:34;;;;;;;;;;;15.50;99.90;;;;;;5417955;26;19953;-45
2024/04/08 14:00:59;;;;;;;;;;;15.50;99.90;;;;;;5417210;26;19998;-45
2024/04/08 14:03:27;;;;;;;;;;;15.50;99.90;;;;;;5417843;26;19937;-46
2024/04/08 14:05:53;;;;;;;;;;;15.50;99.90;;;;;;5415223;26;19933;-49
2024/04/08 14:08:19;;;;;;;;;;;15.50;99.90;;;;;;5391139;26;19937;-46
2024/04/08 14:10:44;;;;;;;;;;;15.50;99.90;;;;;;5399842;26;19944;-48